Time;durP1;ratioP1;P1;durP2;ratioP2;P2;SDS_P1;SDS_P2;PMS_P1;PMS_P2;Temp;Humidity;BMP_temperature;BMP_pressure;BME280_temperature;BME280_humidity;BME280_pressure;Samples;Min_cycle;Max_cycle;Signal;HPM_P1;HPM_P2
2023/08/19 00:01:15;;;;;;;8.25;7.80;;;;;;;22.91;53.88;92977.09;5092905;28;20177;-76
2023/08/19 00:03:41;;;;;;;9.57;8.88;;;;;;;22.97;53.58;92988.25;5092598;28;20281;-76
2023/08/19 00:06:09;;;;;;;8.48;7.78;;;;;;;22.89;53.32;92984.66;5092687;28;20187;-76
2023/08/19 00:08:35;;;;;;;9.65;8.85;;;;;;;22.89;53.38;92984.66;5088023;28;20223;-76
2023/08/19 00:11:02;;;;;;;9.27;8.45;;;;;;;22.70;53.55;92971.28;5092648;28;20800;-76
2023/08/19 00:13:28;;;;;;;8.48;7.97;;;;;;;22.67;53.94;92950.66;5091990;28;20228;-76
2023/08/19 00:15:53;;;;;;;9.20;8.45;;;;;;;22.68;53.82;92959.44;5085583;28;20185;-75
2023/08/19 00:18:18;;;;;;;8.15;7.55;;;;;;;22.75;53.86;92968.34;5091615;28;20234;-77
2023/08/19 00:20:44;;;;;;;9.40;8.80;;;;;;;22.77;53.81;92981.31;5091236;28;20248;-76
2023/08/19 00:23:10;;;;;;;8.57;8.02;;;;;;;22.72;53.90;92985.03;5084985;28;20279;-76
2023/08/19 00:25:35;;;;;;;7.65;7.25;;;;;;;22.51;54.50;92949.88;5099454;28;20281;-76
2023/08/19 00:28:03;;;;;;;9.00;8.30;;;;;;;22.71;54.20;92978.13;5109248;28;20251;-77
2023/08/19 00:30:29;;;;;;;8.98;8.30;;;;;;;22.58;54.84;92966.03;5080810;28;20200;-76
2023/08/19 00:32:55;;;;;;;8.65;8.05;;;;;;;22.61;54.70;92968.00;5091761;28;20223;-76
2023/08/19 00:35:20;;;;;;;8.45;7.95;;;;;;;22.58;54.64;92957.28;5091190;28;20213;-76
2023/08/19 00:37:45;;;;;;;9.50;8.70;;;;;;;22.45;54.96;92945.91;5078841;28;20215;-76
2023/08/19 00:40:16;;;;;;;7.85;7.45;;;;;;;22.55;54.31;92953.41;5071785;28;20207;-76
2023/08/19 00:42:43;;;;;;;9.43;7.80;;;;;;;22.55;54.71;92955.28;5082547;28;20487;-76
2023/08/19 00:45:10;;;;;;;11.05;9.35;;;;;;;22.59;54.79;92953.47;5091337;28;20209;-77
2023/08/19 00:47:37;;;;;;;9.27;8.48;;;;;;;22.55;54.45;92955.28;5091861;28;20227;-76
2023/08/19 00:50:08;;;;;;;9.60;8.73;;;;;;;22.57;54.38;92951.16;5091555;28;20284;-75
2023/08/19 00:52:35;;;;;;;8.30;7.78;;;;;;;22.51;54.69;92951.72;5090990;28;20266;-76
2023/08/19 00:55:00;;;;;;;9.02;8.27;;;;;;;22.45;54.92;92943.25;5124708;28;20187;-77
2023/08/19 00:57:26;;;;;;;8.13;7.63;;;;;;;22.46;54.86;92944.78;5093861;28;20247;-74
2023/08/19 00:59:52;;;;;;;9.48;8.68;;;;;;;22.23;54.62;92909.25;5092152;28;20186;-76
2023/08/19 01:02:18;;;;;;;8.85;8.25;;;;;;;22.40;55.35;92937.41;5090926;28;20286;-76
2023/08/19 01:04:43;;;;;;;8.90;8.30;;;;;;;22.46;55.29;92949.34;5090911;28;20203;-76
2023/08/19 01:07:31;;;;;;;8.50;7.90;;;;;;;22.43;55.20;92947.38;5090551;28;20230;-76
2023/08/19 01:10:10;;;;;;;9.95;7.93;;;;;;;22.47;55.02;92946.34;5091468;28;20195;-75
2023/08/19 01:12:52;;;;;;;12.32;8.88;;;;;;;22.53;54.10;92945.00;5090623;28;20256;-75
2023/08/19 01:15:24;;;;;;;8.65;7.93;;;;;;;22.47;54.38;92943.69;5090455;28;20195;-76
2023/08/19 01:17:51;;;;;;;9.63;8.82;;;;;;;22.48;54.38;92947.88;5090611;28;20293;-76
2023/08/19 01:20:18;;;;;;;8.65;8.15;;;;;;;22.53;53.81;92945.00;5091558;28;20188;-77
2023/08/19 01:22:59;;;;;;;9.95;7.97;;;;;;;22.42;53.85;92946.59;5090612;28;20229;-76
2023/08/19 01:25:26;;;;;;;8.18;7.68;;;;;;;22.40;53.99;92946.16;5091275;28;20202;-76
2023/08/19 01:27:51;;;;;;;8.70;7.97;;;;;;;22.20;53.28;92931.22;5090395;28;20236;-77
2023/08/19 01:30:17;;;;;;;8.68;8.07;;;;;;;22.35;53.15;92948.31;5085520;28;20162;-78
2023/08/19 01:32:44;;;;;;;9.32;8.73;;;;;;;22.29;52.12;92934.47;5090412;28;20251;-76
2023/08/19 01:35:11;;;;;;;8.88;8.38;;;;;;;22.35;52.84;92951.72;5080172;28;20259;-77
2023/08/19 01:37:44;;;;;;;9.02;8.38;;;;;;;22.29;52.25;92944.34;5090226;28;20309;-76
2023/08/19 01:40:13;;;;;;;9.07;8.38;;;;;;;22.26;52.43;92945.78;5090942;28;20261;-76
2023/08/19 01:42:39;;;;;;;9.13;8.38;;;;;;;22.29;52.14;92941.69;5090145;28;20214;-76
2023/08/19 01:45:07;;;;;;;9.27;8.48;;;;;;;21.97;52.04;92891.13;5090799;28;20205;-76
2023/08/19 01:47:37;;;;;;;8.73;7.88;;;;;;;22.26;52.34;92940.47;5096733;28;20240;-76
2023/08/19 01:50:04;;;;;;;8.50;7.85;;;;;;;22.23;52.42;92928.66;5096887;28;20190;-76
2023/08/19 01:52:30;;;;;;;8.70;8.20;;;;;;;22.21;52.12;92922.13;5080978;28;20287;-76
2023/08/19 01:54:55;;;;;;;9.38;8.63;;;;;;;22.20;52.74;92936.53;5070549;28;20196;-76
2023/08/19 01:57:20;;;;;;;8.10;7.40;;;;;;;22.13;52.10;92921.16;5068055;28;20280;-77
2023/08/19 01:59:46;;;;;;;8.23;7.78;;;;;;;22.27;52.08;92934.81;5070749;28;20198;-76
2023/08/19 02:02:11;;;;;;;9.25;8.57;;;;;;;22.26;52.08;92940.47;5070164;28;20244;-77
2023/08/19 02:04:37;;;;;;;9.25;8.65;;;;;;;22.19;51.28;92935.75;5069864;28;20227;-76
2023/08/19 02:07:02;;;;;;;9.80;9.07;;;;;;;22.25;51.62;92944.25;5075211;28;20225;-76
2023/08/19 02:09:29;;;;;;;9.35;8.73;;;;;;;22.12;51.10;92929.47;5090710;28;20261;-76
2023/08/19 02:11:54;;;;;;;8.90;8.40;;;;;;;22.16;51.02;92931.09;5089763;28;20249;-77
2023/08/19 02:14:20;;;;;;;8.90;8.25;;;;;;;22.21;51.41;92944.16;5090332;28;20198;-76
2023/08/19 02:16:45;;;;;;;9.55;8.85;;;;;;;22.25;50.81;92938.94;5089437;28;20267;-76
2023/08/19 02:19:11;;;;;;;10.18;8.20;;;;;;;21.70;51.07;92869.84;5090137;28;20204;-75
2023/08/19 02:21:36;;;;;;;8.85;8.15;;;;;;;21.99;51.56;92912.81;5088601;28;20223;-76
2023/08/19 02:24:01;;;;;;;9.07;8.45;;;;;;;22.11;51.72;92934.03;5068901;28;20238;-76
2023/08/19 02:26:27;;;;;;;9.35;8.65;;;;;;;22.03;51.23;92926.22;5069259;28;20183;-76
2023/08/19 02:28:52;;;;;;;8.27;7.55;;;;;;;22.19;51.61;92940.31;5070221;28;20187;-76
2023/08/19 02:31:17;;;;;;;8.95;8.35;;;;;;;22.13;51.24;92936.34;5069664;28;20286;-77
2023/08/19 02:33:43;;;;;;;8.55;7.90;;;;;;;22.13;51.89;92941.69;5069777;28;20216;-76
2023/08/19 02:36:09;;;;;;;9.27;8.60;;;;;;;22.12;50.88;92935.56;5069866;28;20184;-75
2023/08/19 02:38:34;;;;;;;8.13;7.63;;;;;;;21.95;51.00;92903.97;5069253;28;20242;-76
2023/08/19 02:40:59;;;;;;;9.20;8.60;;;;;;;22.09;51.42;92943.47;5069383;28;20209;-75
2023/08/19 02:43:25;;;;;;;8.57;7.97;;;;;;;22.12;50.90;92934.78;5068282;28;20219;-74
2023/08/19 02:45:50;;;;;;;8.68;8.07;;;;;;;22.15;51.34;92939.44;5069583;28;20219;-76
2023/08/19 02:48:16;;;;;;;9.52;8.93;;;;;;;22.08;51.05;92926.75;5068297;28;20228;-76
2023/08/19 02:50:42;;;;;;;9.50;8.43;;;;;;;22.13;51.53;92944.34;5069340;28;20188;-75
2023/08/19 02:53:07;;;;;;;8.65;8.15;;;;;;;22.01;51.88;92939.06;5083648;28;20230;-77
2023/08/19 02:55:33;;;;;;;8.52;7.88;;;;;;;22.07;51.51;92941.13;5089607;28;20184;-76
2023/08/19 02:57:59;;;;;;;8.52;7.93;;;;;;;21.98;51.77;92942.41;5089115;28;20247;-76
2023/08/19 03:00:25;;;;;;;8.68;8.05;;;;;;;21.88;52.07;92940.25;5089578;28;20220;-75
2023/08/19 03:02:52;;;;;;;8.52;8.13;;;;;;;21.91;52.12;92940.34;5089036;28;20229;-76
2023/08/19 03:05:17;;;;;;;8.57;8.02;;;;;;;21.87;51.56;92938.69;5088833;28;20282;-76
2023/08/19 03:07:43;;;;;;;9.20;8.70;;;;;;;21.69;52.62;92930.22;5089595;28;20219;-76
2023/08/19 03:10:08;;;;;;;9.68;9.00;;;;;;;21.82;52.19;92936.28;5089289;28;20174;-76
2023/08/19 03:12:34;;;;;;;8.38;7.85;;;;;;;21.80;52.83;92943.84;5088199;28;20218;-77
2023/08/19 03:14:59;;;;;;;8.93;8.23;;;;;;;21.74;52.02;92937.94;5089309;28;20188;-76
2023/08/19 03:17:24;;;;;;;8.45;7.95;;;;;;;21.84;52.25;92955.31;5089260;28;20240;-76
2023/08/19 03:19:50;;;;;;;9.25;8.65;;;;;;;21.69;52.30;92945.38;5087287;28;20178;-76
2023/08/19 03:22:16;;;;;;;8.65;8.10;;;;;;;21.73;51.78;92938.28;5079489;28;20220;-76
2023/08/19 03:24:41;;;;;;;9.00;8.32;;;;;;;21.73;51.75;92943.59;5075990;28;20218;-77
2023/08/19 03:27:06;;;;;;;9.63;8.82;;;;;;;21.71;51.53;92940.53;5095315;28;20319;-76
2023/08/19 03:29:32;;;;;;;8.20;7.80;;;;;;;21.64;52.36;92941.09;5093976;28;20186;-76
2023/08/19 03:31:57;;;;;;;9.70;9.07;;;;;;;21.65;52.60;92947.94;5083034;28;20226;-75
2023/08/19 03:34:23;;;;;;;8.48;7.88;;;;;;;21.61;51.63;92931.13;5069788;28;20226;-77
2023/08/19 03:36:48;;;;;;;8.93;8.23;;;;;;;21.72;51.05;92942.84;5076238;28;20225;-76
2023/08/19 03:39:14;;;;;;;9.30;8.65;;;;;;;21.73;52.02;92952.34;5106131;28;20183;-76
2023/08/19 03:41:39;;;;;;;8.93;8.32;;;;;;;21.70;51.80;92946.94;5086560;28;20206;-76
2023/08/19 03:44:05;;;;;;;9.85;9.05;;;;;;;21.81;51.53;92940.84;5067408;28;20213;-76
2023/08/19 03:46:30;;;;;;;15.48;9.43;;;;;;;21.86;52.12;92931.84;5068860;28;20198;-75
2023/08/19 03:48:56;;;;;;;8.70;8.13;;;;;;;21.98;50.68;92940.53;5068936;28;20198;-76
2023/08/19 03:51:21;;;;;;;10.10;7.90;;;;;;;22.05;50.40;92938.03;5068714;28;20200;-76
2023/08/19 03:53:46;;;;;;;9.18;8.48;;;;;;;22.07;49.92;92945.72;5069781;28;20216;-75
2023/08/19 03:56:12;;;;;;;8.15;7.65;;;;;;;22.07;49.28;92935.06;5072855;28;20194;-77
2023/08/19 03:58:37;;;;;;;8.73;8.23;;;;;;;22.07;50.03;92929.75;5071394;28;20233;-76
2023/08/19 04:01:07;;;;;;;8.85;8.35;;;;;;;22.10;49.40;92927.16;5072759;28;20181;-76
2023/08/19 04:03:33;;;;;;;9.00;8.38;;;;;;;22.13;49.42;92931.03;5072277;28;20240;-77
2023/08/19 04:05:58;;;;;;;14.50;8.35;;;;;;;22.27;48.96;92947.38;5072940;28;20226;-75
2023/08/19 04:08:23;;;;;;;9.38;8.70;;;;;;;22.38;48.30;92943.09;5071627;28;20234;-76
2023/08/19 04:10:49;;;;;;;9.10;8.25;;;;;;;22.47;48.09;92948.22;5072680;28;20182;-75
2023/08/19 04:13:16;;;;;;;12.10;8.60;;;;;;;22.16;48.54;92943.66;5087572;28;20247;-76
2023/08/19 04:15:41;;;;;;;8.07;7.57;;;;;;;22.26;49.30;92935.16;5092850;28;20198;-76
2023/08/19 04:18:08;;;;;;;9.00;8.48;;;;;;;22.31;48.97;92940.22;5091507;28;20245;-76
2023/08/19 04:20:39;;;;;;;9.27;8.43;;;;;;;22.48;48.79;92942.56;5092776;28;20223;-75
2023/08/19 04:23:05;;;;;;;9.48;8.70;;;;;;;22.38;49.69;92940.44;5091509;28;20273;-75
2023/08/19 04:25:31;;;;;;;8.38;7.93;;;;;;;22.45;49.09;92950.44;5092446;28;20219;-76
2023/08/19 04:27:56;;;;;;;10.38;8.60;;;;;;;22.46;49.74;92946.69;5091518;28;20233;-75
2023/08/19 04:30:22;;;;;;;9.15;8.55;;;;;;;22.42;49.28;92949.25;5092189;28;20171;-76
2023/08/19 04:32:47;;;;;;;9.40;8.90;;;;;;;22.56;46.73;92964.81;5091644;28;20227;-76
2023/08/19 04:35:12;;;;;;;9.82;9.13;;;;;;;22.75;51.30;92973.69;5092450;28;20251;-76
2023/08/19 04:37:39;;;;;;;9.75;9.00;;;;;;;21.84;54.06;92855.09;5091486;28;20230;-75
2023/08/19 04:40:09;;;;;;;12.05;8.85;;;;;;;22.36;55.49;92961.28;5081472;28;20180;-76
2023/08/19 04:42:37;;;;;;;8.85;8.23;;;;;;;22.16;57.49;92978.22;5091912;28;20230;-76
2023/08/19 04:45:05;;;;;;;9.10;8.50;;;;;;;22.12;55.87;92966.72;5092009;28;20219;-76
2023/08/19 04:47:32;;;;;;;9.75;9.05;;;;;;;22.26;55.77;92971.66;5091987;28;20227;-76
2023/08/19 04:49:57;;;;;;;9.15;8.52;;;;;;;22.16;55.35;92973.66;5091821;28;20258;-75
2023/08/19 04:52:22;;;;;;;9.95;9.27;;;;;;;22.26;56.00;92998.25;5091139;28;20843;-76
2023/08/19 04:54:48;;;;;;;9.13;8.43;;;;;;;22.14;56.13;92996.41;5091875;28;20188;-76
2023/08/19 04:57:13;;;;;;;9.68;8.57;;;;;;;21.97;56.55;92975.44;5091209;28;20252;-76
2023/08/19 04:59:39;;;;;;;9.68;9.07;;;;;;;22.12;56.56;92998.63;5091820;28;20187;-76
2023/08/19 05:02:04;;;;;;;9.93;8.85;;;;;;;22.01;56.88;92982.41;5091106;28;20236;-76
2023/08/19 05:04:30;;;;;;;9.32;8.57;;;;;;;22.11;56.03;92994.44;5090849;28;20207;-75
2023/08/19 05:06:55;;;;;;;9.15;8.50;;;;;;;22.24;55.75;93006.56;5090465;28;20225;-76
2023/08/19 05:09:20;;;;;;;9.25;8.55;;;;;;;22.32;54.62;92991.56;5090627;28;20179;-75
2023/08/19 05:11:46;;;;;;;9.70;8.65;;;;;;;22.52;52.91;92996.69;5090899;28;20260;-75
2023/08/19 05:14:11;;;;;;;8.43;7.93;;;;;;;22.76;52.79;92999.19;5091285;28;20202;-75
2023/08/19 05:16:37;;;;;;;9.15;8.65;;;;;;;22.95;51.12;93004.59;5090355;28;20222;-76
2023/08/19 05:19:05;;;;;;;9.13;8.52;;;;;;;22.97;51.40;93006.91;5091457;28;20212;-76
2023/08/19 05:21:31;;;;;;;9.63;8.68;;;;;;;22.91;52.39;93001.06;5091223;28;20251;-76
2023/08/19 05:23:56;;;;;;;8.55;7.85;;;;;;;22.82;51.76;92984.47;5091129;28;20208;-76
2023/08/19 05:26:21;;;;;;;8.60;8.10;;;;;;;23.22;48.93;93009.00;5091376;28;20940;-76
2023/08/19 05:28:47;;;;;;;8.43;7.80;;;;;;;23.11;50.11;93005.34;5069469;28;20212;-76
2023/08/19 05:31:13;;;;;;;8.60;8.00;;;;;;;23.37;48.43;93000.25;5071045;28;20232;-76
2023/08/19 05:33:38;;;;;;;8.55;7.85;;;;;;;23.50;47.71;93009.66;5070794;28;20280;-77
2023/08/19 05:36:04;;;;;;;8.82;8.30;;;;;;;23.61;46.28;93008.00;5070830;28;20187;-76
2023/08/19 05:38:29;;;;;;;9.05;8.45;;;;;;;23.76;46.41;93009.09;5088151;28;20251;-75
2023/08/19 05:40:56;;;;;;;9.02;8.25;;;;;;;23.62;46.00;92974.91;5090872;28;20179;-75
2023/08/19 05:43:21;;;;;;;9.20;8.60;;;;;;;23.92;44.58;93003.69;5097581;28;20220;-75
2023/08/19 05:45:46;;;;;;;9.02;8.32;;;;;;;24.09;45.12;93011.31;5090632;28;20236;-76
2023/08/19 05:48:12;;;;;;;9.30;8.68;;;;;;;24.16;46.15;92998.09;5075062;28;20250;-76
2023/08/19 05:50:37;;;;;;;8.95;8.45;;;;;;;24.30;45.18;92971.66;5070286;28;20197;-76
2023/08/19 05:53:03;;;;;;;9.50;8.90;;;;;;;24.55;46.66;92984.34;5069473;28;20224;-77
2023/08/19 05:55:28;;;;;;;11.70;9.30;;;;;;;25.72;44.33;92987.72;5070344;28;20578;-75
2023/08/19 05:57:53;;;;;;;9.27;8.48;;;;;;;25.76;42.63;92977.06;5070322;28;20242;-76
2023/08/19 06:00:19;;;;;;;8.32;7.82;;;;;;;25.67;42.51;92996.03;5070285;28;20189;-76
2023/08/19 06:02:44;;;;;;;8.77;8.13;;;;;;;25.59;42.36;92993.66;5081738;28;20739;-76
2023/08/19 06:05:10;;;;;;;9.10;8.50;;;;;;;26.53;42.20;93000.16;5090489;28;20230;-75
2023/08/19 06:07:37;;;;;;;7.32;6.95;;;;;;;29.22;36.22;93002.06;5090075;28;20212;-76
2023/08/19 06:10:03;;;;;;;8.98;8.27;;;;;;;33.18;29.83;93034.78;5090203;28;20176;-76
2023/08/19 06:12:28;;;;;;;7.07;6.57;;;;;;;35.74;25.29;93048.06;5090393;28;20224;-76
2023/08/19 06:14:53;;;;;;;8.07;7.25;;;;;;;36.04;23.95;93034.13;5090010;28;20194;-75
2023/08/19 06:17:19;;;;;;;7.90;7.30;;;;;;;36.50;23.34;93048.03;5089595;28;20248;-76
2023/08/19 06:19:44;;;;;;;7.88;6.72;;;;;;;33.74;26.01;93055.59;5090512;28;20207;-76
2023/08/19 06:22:09;;;;;;;7.78;7.28;;;;;;;29.88;32.77;93030.09;5089873;28;20208;-76
2023/08/19 06:24:35;;;;;;;7.18;6.50;;;;;;;28.25;34.44;93038.28;5090117;28;20213;-75
2023/08/19 06:27:00;;;;;;;8.02;7.55;;;;;;;26.76;38.87;93028.75;5090034;28;20216;-76
2023/08/19 06:29:25;;;;;;;8.20;7.50;;;;;;;26.15;40.39;93032.63;5090058;28;20287;-76
2023/08/19 06:31:51;;;;;;;8.10;7.50;;;;;;;26.05;40.77;93035.97;5097219;28;21028;-75
2023/08/19 06:34:17;;;;;;;7.97;7.47;;;;;;;25.75;41.39;93029.78;5095872;28;20191;-77
2023/08/19 06:36:47;;;;;;;8.57;7.97;;;;;;;25.94;40.98;93037.69;5089919;28;20220;-77
2023/08/19 06:39:24;;;;;;;8.93;8.10;;;;;;;26.18;41.07;93037.25;5090020;28;20260;-76
2023/08/19 06:41:55;;;;;;;8.07;7.28;;;;;;;25.49;40.52;92943.47;5089699;28;20236;-76
2023/08/19 06:44:21;;;;;;;7.53;7.05;;;;;;;26.23;40.17;93041.50;5089809;28;20230;-76
2023/08/19 06:46:47;;;;;;;8.05;7.50;;;;;;;26.27;39.89;93040.41;5099604;28;20302;-75
2023/08/19 06:49:12;;;;;;;8.32;7.63;;;;;;;25.87;41.43;93032.22;5091320;28;20200;-76
2023/08/19 06:51:38;;;;;;;8.82;7.72;;;;;;;26.02;41.97;93038.59;5089837;28;20197;-76
2023/08/19 06:54:04;;;;;;;8.25;7.72;;;;;;;25.92;42.15;93042.63;5089565;28;20267;-76
2023/08/19 06:56:33;;;;;;;8.68;7.80;;;;;;;25.52;41.15;93047.03;5088426;28;20211;-77
2023/08/19 06:59:08;;;;;;;8.73;8.18;;;;;;;25.73;41.19;93042.75;5069278;28;20647;-76
2023/08/19 07:01:36;;;;;;;8.38;7.68;;;;;;;26.03;41.28;93022.16;5069354;28;20272;-77
2023/08/19 07:04:03;;;;;;;9.43;7.70;;;;;;;26.20;40.71;93044.91;5068483;28;20199;-77
2023/08/19 07:06:31;;;;;;;8.30;7.90;;;;;;;26.09;39.77;93039.44;5069815;28;20197;-76
2023/08/19 07:08:56;;;;;;;8.23;7.60;;;;;;;25.84;39.20;93032.22;5070326;28;20166;-77
2023/08/19 07:11:22;;;;;;;8.30;7.78;;;;;;;26.27;38.98;93040.41;5070960;28;20200;-74
2023/08/19 07:13:48;;;;;;;7.63;7.13;;;;;;;26.53;38.77;93032.31;5071264;28;20201;-76
2023/08/19 07:16:18;;;;;;;9.00;8.35;;;;;;;26.66;36.73;93041.66;5069320;28;20185;-77
2023/08/19 07:18:47;;;;;;;8.25;7.57;;;;;;;26.41;38.56;93043.25;5069165;28;20225;-76
2023/08/19 07:21:14;;;;;;;8.13;7.53;;;;;;;26.66;38.12;93049.69;5068384;28;20694;-76
2023/08/19 07:23:41;;;;;;;8.30;7.70;;;;;;;26.66;39.60;93030.94;5067766;28;20221;-76
2023/08/19 07:26:08;;;;;;;8.88;8.27;;;;;;;26.78;36.45;93048.66;5068139;28;20181;-76
2023/08/19 07:28:35;;;;;;;7.72;7.25;;;;;;;26.60;35.98;93021.66;5076102;28;20216;-77
2023/08/19 07:31:02;;;;;;;8.43;7.82;;;;;;;26.65;36.14;93025.94;5078631;28;20204;-76
2023/08/19 07:33:27;;;;;;;7.55;7.05;;;;;;;26.39;37.23;93040.19;5061088;28;20224;-76
2023/08/19 07:35:52;;;;;;;8.02;7.57;;;;;;;26.47;37.58;93043.72;5073679;28;20249;-75
2023/08/19 07:38:18;;;;;;;7.32;6.93;;;;;;;26.41;36.40;93035.22;5072930;28;20209;-76
2023/08/19 07:40:44;;;;;;;7.57;7.07;;;;;;;26.78;36.72;93037.94;5073270;28;20182;-76
2023/08/19 07:43:10;;;;;;;7.68;7.07;;;;;;;26.83;35.82;93051.03;5072575;28;20229;-76
2023/08/19 07:45:35;;;;;;;8.05;7.30;;;;;;;26.98;36.91;93044.63;5072947;28;20312;-76
2023/08/19 07:48:00;;;;;;;8.65;7.85;;;;;;;27.18;35.94;93043.28;5084001;28;20220;-76
2023/08/19 07:50:26;;;;;;;7.40;7.00;;;;;;;26.72;37.76;93024.09;5078380;28;20208;-78
2023/08/19 07:52:52;;;;;;;8.50;7.78;;;;;;;26.97;37.48;93055.72;5085189;28;20280;-76
2023/08/19 07:55:18;;;;;;;8.10;7.70;;;;;;;27.06;36.77;93050.84;5092983;28;20192;-76
2023/08/19 07:57:43;;;;;;;7.47;6.82;;;;;;;27.07;36.03;93033.63;5104391;28;20310;-76
2023/08/19 08:00:09;;;;;;;8.40;7.80;;;;;;;26.77;37.26;93045.19;5093006;28;20193;-77
2023/08/19 08:02:34;;;;;;;7.20;6.70;;;;;;;27.07;36.66;93060.44;5092457;28;20224;-75
2023/08/19 08:05:02;;;;;;;8.60;8.10;;;;;;;26.94;36.90;93041.16;5092913;28;20223;-77
2023/08/19 08:07:27;;;;;;;8.18;7.25;;;;;;;27.08;37.86;93051.25;5092937;28;20212;-76
2023/08/19 08:09:53;;;;;;;8.32;7.60;;;;;;;27.35;38.10;93055.34;5092730;28;20271;-76
2023/08/19 08:12:18;;;;;;;7.95;7.55;;;;;;;27.52;36.87;93065.44;5092774;28;20220;-76
2023/08/19 08:14:43;;;;;;;7.80;7.35;;;;;;;27.35;38.02;93050.72;5090451;28;20226;-76
2023/08/19 08:17:09;;;;;;;7.90;7.45;;;;;;;27.53;37.25;93054.34;5092034;28;20239;-76
2023/08/19 08:19:34;;;;;;;7.50;7.10;;;;;;;27.44;38.37;93056.53;5092790;28;20185;-76
2023/08/19 08:22:00;;;;;;;7.90;7.40;;;;;;;27.24;38.29;93044.47;5091980;28;20276;-76
2023/08/19 08:24:25;;;;;;;8.40;7.80;;;;;;;27.31;38.84;93051.84;5092096;28;20219;-76
2023/08/19 08:26:51;;;;;;;8.40;7.85;;;;;;;27.58;38.37;93048.59;5091955;28;20225;-76
2023/08/19 08:29:16;;;;;;;7.65;7.25;;;;;;;27.75;39.59;93047.94;5091453;28;20272;-77
2023/08/19 08:31:42;;;;;;;11.02;7.55;;;;;;;27.95;38.35;93051.16;5089821;28;21634;-75
2023/08/19 08:34:07;;;;;;;8.45;7.75;;;;;;;28.30;37.29;93050.59;5091520;28;20176;-78
2023/08/19 08:36:33;;;;;;;7.93;7.43;;;;;;;28.19;37.38;93050.50;5091883;28;20185;-75
2023/08/19 08:38:58;;;;;;;8.73;8.00;;;;;;;28.28;36.26;93045.59;5092093;28;20248;-77
2023/08/19 08:41:25;;;;;;;8.52;7.85;;;;;;;28.23;36.41;93045.94;5124814;28;20173;-76
2023/08/19 08:43:52;;;;;;;8.02;7.40;;;;;;;28.09;36.98;93051.25;5091902;28;20189;-75
2023/08/19 08:46:19;;;;;;;8.07;7.47;;;;;;;27.82;37.28;93052.59;5092135;28;20185;-76
2023/08/19 08:48:46;;;;;;;8.95;7.97;;;;;;;28.18;36.51;93043.63;5091456;28;20235;-76
2023/08/19 08:51:13;;;;;;;8.30;7.60;;;;;;;28.25;36.39;93049.03;5091523;28;20177;-76
2023/08/19 08:53:38;;;;;;;7.85;7.32;;;;;;;28.60;35.35;93059.94;5091543;28;20217;-77
2023/08/19 08:56:06;;;;;;;9.02;8.32;;;;;;;28.34;37.90;93036.00;5091750;28;20206;-75
2023/08/19 08:58:31;;;;;;;8.48;7.82;;;;;;;28.60;39.06;93059.94;5091197;28;20221;-75
2023/08/19 09:00:58;;;;;;;11.52;8.52;;;;;;;28.58;37.90;93072.97;5091644;28;20187;-76
2023/08/19 09:03:30;;;;;;;8.55;7.93;;;;;;;28.50;38.32;93059.91;5091417;28;20216;-75
2023/08/19 09:05:58;;;;;;;9.32;7.45;;;;;;;28.89;37.13;93064.22;5092262;28;20211;-76
2023/08/19 09:08:41;;;;;;;7.53;7.13;;;;;;;29.13;36.19;93068.91;5091395;28;20314;-75
2023/08/19 09:11:11;;;;;;;7.90;7.07;;;;;;;29.15;35.69;93057.78;5083348;28;20181;-75
2023/08/19 09:13:38;;;;;;;7.90;7.30;;;;;;;28.97;35.21;93041.56;5091295;28;20247;-76
2023/08/19 09:16:03;;;;;;;8.40;7.68;;;;;;;29.20;36.43;93058.16;5092633;28;20192;-76
2023/08/19 09:18:29;;;;;;;7.50;7.03;;;;;;;29.23;34.63;93064.69;5090861;28;20226;-76
2023/08/19 09:20:55;;;;;;;7.43;6.93;;;;;;;29.16;34.98;93046.63;5090670;28;20194;-76
2023/08/19 09:23:21;;;;;;;7.70;7.22;;;;;;;28.75;35.99;93063.44;5085894;28;20228;-76
2023/08/19 09:25:46;;;;;;;7.55;6.95;;;;;;;28.49;35.61;93052.97;5082760;28;20308;-76
2023/08/19 09:28:17;;;;;;;8.05;7.55;;;;;;;28.13;37.90;93055.47;5081963;28;20238;-76
2023/08/19 09:30:42;;;;;;;7.78;7.03;;;;;;;28.35;36.74;93052.88;5094807;28;20215;-76
2023/08/19 09:33:08;;;;;;;8.10;7.57;;;;;;;28.42;36.15;93056.41;5091569;28;20208;-76
2023/08/19 09:35:37;;;;;;;7.47;7.07;;;;;;;28.60;35.82;93048.41;5088124;28;20193;-76
2023/08/19 09:38:02;;;;;;;7.13;6.72;;;;;;;28.53;36.30;93043.75;5090248;28;20231;-76
2023/08/19 09:40:28;;;;;;;8.98;7.75;;;;;;;28.74;37.04;93043.84;5090816;28;20919;-75
2023/08/19 09:42:56;;;;;;;7.57;7.07;;;;;;;28.92;37.12;93054.66;5090544;28;20237;-76
2023/08/19 09:45:25;;;;;;;7.70;7.30;;;;;;;29.34;34.79;93052.78;5091007;28;20238;-75
2023/08/19 09:47:52;;;;;;;8.07;7.57;;;;;;;29.34;33.73;93049.34;5090368;28;20232;-76
2023/08/19 09:50:20;;;;;;;7.93;7.40;;;;;;;28.38;35.53;93046.75;5103664;28;20195;-76
2023/08/19 09:52:56;;;;;;;8.13;7.60;;;;;;;28.57;37.63;93066.06;5089324;28;20220;-76
2023/08/19 09:55:23;;;;;;;8.30;7.65;;;;;;;28.50;35.69;93052.59;5090653;28;20193;-76
2023/08/19 09:57:49;;;;;;;8.45;7.55;;;;;;;28.50;36.67;93055.28;5090875;28;20283;-76
2023/08/19 10:00:14;;;;;;;8.75;8.05;;;;;;;28.73;35.01;93049.59;5089659;28;20197;-76
2023/08/19 10:02:40;;;;;;;7.78;7.20;;;;;;;28.82;33.91;93050.00;5090144;28;20250;-76
2023/08/19 10:05:05;;;;;;;8.82;8.10;;;;;;;28.80;35.86;93061.13;5090771;28;20235;-76
2023/08/19 10:07:32;;;;;;;7.80;7.07;;;;;;;28.96;34.67;93045.44;5080380;28;20248;-76
2023/08/19 10:10:03;;;;;;;8.63;7.82;;;;;;;29.17;34.50;93056.22;5069935;28;20181;-76
2023/08/19 10:12:33;;;;;;;7.78;7.22;;;;;;;28.85;35.34;93049.25;5070001;28;20212;-76
2023/08/19 10:15:00;;;;;;;8.57;7.88;;;;;;;28.57;36.07;93044.56;5070089;28;20177;-78
2023/08/19 10:17:27;;;;;;;7.78;7.05;;;;;;;28.60;35.67;93051.88;5069834;28;20223;-77
2023/08/19 10:20:01;;;;;;;7.30;6.90;;;;;;;28.82;35.34;93058.06;5057365;28;20201;-76
2023/08/19 10:22:29;;;;;;;8.07;7.57;;;;;;;28.65;36.38;93050.72;5069516;28;20216;-75
2023/08/19 10:24:57;;;;;;;7.65;7.00;;;;;;;28.52;36.22;93036.88;5070194;28;20276;-76
2023/08/19 10:27:23;;;;;;;7.53;7.03;;;;;;;28.67;35.60;93043.06;5069738;28;20225;-75
2023/08/19 10:29:55;;;;;;;7.85;7.35;;;;;;;28.90;35.85;93046.97;5077580;28;20191;-76
2023/08/19 10:32:29;;;;;;;7.78;7.00;;;;;;;28.97;37.28;93048.88;5069658;28;20258;-76
2023/08/19 10:35:10;;;;;;;8.10;7.43;;;;;;;29.06;35.43;93043.94;5070058;28;20184;-76
2023/08/19 10:37:40;;;;;;;7.95;7.45;;;;;;;29.24;35.34;93040.09;5068568;28;20246;-77
2023/08/19 10:40:23;;;;;;;8.00;7.50;;;;;;;29.27;34.35;93033.97;5069904;28;20182;-75
2023/08/19 10:42:58;;;;;;;6.97;6.38;;;;;;;29.03;35.11;93042.00;5067148;28;20242;-76
2023/08/19 10:45:31;;;;;;;8.00;7.45;;;;;;;28.59;36.37;93020.00;5069995;28;20204;-76
2023/08/19 10:47:56;;;;;;;8.13;7.60;;;;;;;28.70;35.64;93037.66;5068045;28;21136;-76
2023/08/19 10:50:24;;;;;;;8.43;7.70;;;;;;;28.60;35.88;93037.66;5068828;28;20215;-78
2023/08/19 10:53:01;;;;;;;7.60;7.20;;;;;;;28.60;36.80;93043.03;5069315;28;20222;-75
2023/08/19 10:55:26;;;;;;;7.93;7.53;;;;;;;28.78;35.68;93038.47;5069733;28;20219;-77
2023/08/19 10:57:53;;;;;;;9.32;8.52;;;;;;;28.94;35.23;93034.28;5069083;28;20228;-76
2023/08/19 11:00:31;;;;;;;8.68;7.95;;;;;;;29.37;34.43;93027.78;5102106;28;20200;-76
2023/08/19 11:02:57;;;;;;;8.20;7.70;;;;;;;29.63;34.61;93040.91;5070116;28;20224;-75
2023/08/19 11:05:26;;;;;;;8.88;8.18;;;;;;;30.25;34.37;93046.56;5069825;28;20217;-76
2023/08/19 11:07:51;;;;;;;8.27;7.57;;;;;;;29.77;34.96;93037.41;5082016;28;20224;-76
2023/08/19 11:10:17;;;;;;;7.43;6.82;;;;;;;30.13;34.23;93041.56;5088550;28;20219;-76
2023/08/19 11:12:45;;;;;;;8.02;7.43;;;;;;;30.12;33.17;93040.00;5078046;28;20231;-76
2023/08/19 11:15:10;;;;;;;7.63;7.13;;;;;;;29.78;34.17;93025.47;5069006;28;20199;-75
2023/08/19 11:17:36;;;;;;;8.13;7.47;;;;;;;30.02;34.42;93054.28;5068810;28;20232;-76
2023/08/19 11:20:12;;;;;;;7.70;7.20;;;;;;;29.69;34.06;93052.81;5069027;28;20185;-76
2023/08/19 11:22:47;;;;;;;7.65;7.10;;;;;;;28.84;35.36;93048.47;5069071;28;20859;-76
2023/08/19 11:25:14;;;;;;;8.02;7.32;;;;;;;28.99;35.57;93041.97;5068734;28;21220;-76
2023/08/19 11:27:39;;;;;;;8.38;7.70;;;;;;;29.23;35.21;93035.88;5068767;28;20223;-75
2023/08/19 11:30:10;;;;;;;8.57;7.88;;;;;;;29.24;35.59;93034.72;5069440;28;20189;-76
2023/08/19 11:32:36;;;;;;;7.97;7.47;;;;;;;29.43;35.62;93038.97;5068320;28;20252;-76